Southfield, Louisiana
Current Conditions -  °F | °C
As of 3:58 PM on Sunday 25 Jan 2015 (Local Time) from KBAD Reporting Station
Clear Clear  
Wind Chill: 64°   Ceiling: Unl
Heat Index: 64°   Visibility: 10mi
Dew Point: 30°   Wind: 18mph
Humidity: 27%   Direction: 320°NW
Pressure: 29.92"   Gusts: 29mph
Location:  32.457°N, 93.7096°W
Report Text: KBAD 252158Z AUTO 32016G25KT 10SM CLR 18/M01 A2992 RMK AO2 PK WND 31030/15 SLP135 T01801012
Loading
Personal Weather Stations






























Interactive Weather Map New forecast layout! Learn more

10-Day Weather Forecast

Advertisements
Track Severe Weather on mobile